My Meet Scores
Hope Hartmann, Aspire Gymnastics Academy - MyMeetScores.com
Top100 | Top Teams | Upcoming Meets | Completed Meets | Latest | Add Scores | Help| Support | Bookmark and Share

Hope Hartmann, Aspire Gymnastics Academy
Personal Bests
LevelVault BarsBeamFloorAA
39.5009.350 9.8009.65037.625
49.1009.475 9.7009.35037.625
Scores on America's Top 100as of 10.23.2019
Year Level Vault Bars Beam Floor AA
2018 39.800

Click here to view our
exclusive Top 100 Collection
Meet Scores
Date Meet Team Session Level Division Vault Bars Beam Floor AA
2019-03-22 Illinois Gymnastics State Championships Aspire Gymnastics Academy 5 4 JR D 9.100 6 9.475 5 9.700 2 9.350 2 37.625 3
2019-03-08 Lucky Invite Aspire Gymnastics Academy A09 4 Jr B 8.750 8T 8.975 11 9.400 5 9.175 5 36.300 6
2019-02-23 Kinetic Classic 2019 Aspire Gymnastics Academy 1 4 Older 8.475 462T 8.500 446T 9.350 85T 9.200 164T 35.525 290T
2019-02-15 Big ClassicBIG CLASSIC Aspire Gymnastics Academy 5A 4 Child D 8.700 4 8.950 6 9.475 1 9.325 1 36.450 2
2019-01-25 UGA Invitational Aspire Gymnastics Academy B06 4 Jr A 8.950 3T 9.200 10 9.550 1T 9.100 2T 36.800 3
2019-01-18 2019 Bravo Classic Aspire Gymnastics Academy 3B 4 Jr 8.725 14 8.375 18 9.350 3 9.150 4T 35.600 11
2018-12-14 2018 Aspire Classic Aspire Gymnastics Academy 5A 4 Older 8.600 17T 8.950 10 9.300 5 9.175 3T 36.025 8
2018-12-07 St. Nick Invite 2018 Aspire Gymnastics Academy 5A 4 SrB 8.975 6 8.875 7 9.125 3 9.175 2 36.150 4
2018-11-17 Paul Hamm Thanksgiving Class WOMENS Aspire Gymnastics Academy 6 4 Middle 8.350 26T 8.275 25 9.200 7T 9.100 11 34.925 19
2018-05-03 Illinois USA Gymnastics Level 3 State Championships Aspire Gymnastics Academy 1 3 Jr F 9.400 12T 9.350 8T 9.325 3 9.550 1 37.625 2
2018-02-16 Big Classic Aspire Gymnastics Academy 1B 3 Child C 9.175 3 9.350 3 9.525 1 9.325 2 37.375 1
2018-01-26 2018 UGA Classic Aspire Gymnastics Academy A8 3 Sr A 9.050 8T 9.150 7 9.800 1 9.400 3 37.400 4
2018-01-19 2018 Bravo Classic Aspire Gymnastics Academy 7B 3 Sr 8.875 14 9.125 9T 9.600 1 9.225 3T 36.825 4
2017-12-15 2017 Aspire Classic Aspire Gymnastics Academy 11A 3 Older 9.300 14T 9.325 17T 9.300 7 9.650 6T 37.575 8
2017-12-08 St. Nick Invite Aspire Gymnastics Academy 5A 3 SrA 9.500 1T 9.175 4 9.300 1T 8.900 4T 36.875 1
2017-11-16 Paul Hamm Thanksgiving Classic - Women Aspire Gymnastics Academy 1 3 Older 9.375 2 9.200 9 9.425 1 9.300 2 37.300 1
2017-03-30 2017 Illinois Level 3 & 5 State Aspire Gymnastics Academy All 3 Yh E 9.000 30 8.700 25 8.825 18 8.375 26 34.900 25
2017-02-24 Kinetic Classic Aspire Gymnastics Academy 4,5,6,7 3 All Ages 8.750 100T 8.400 84T 8.800 57T 7.525 115 33.475 105
2017-01-20 2017 Bravo Classic Aspire Gymnastics Academy 11B 3 8yrs 8.900 17T 8.150 22 8.400 20 8.750 13 34.200 16
2016-12-16 2016 Aspire Classic Aspire Gymnastics Academy 12 3 Middle 8.850 12 8.600 14 8.075 13 8.800 10 34.325 15
2016-12-09 St. Nick Invite Aspire Gymnastics Academy 5 3 All 8.750 76T 8.325 61T 8.650 55T 8.400 71T 34.125 68T
2016-11-19 Paul Hamm Thanksgiving Classic - 2016 Girls Aspire Gymnastics Academy 6 3 8-9 yrs 8.725 27 8.300 33T 8.050 30 7.450 40T 32.525 34T
Get your scores on
a t-shirt, pin, or hoodie

www.lazysuits.com